Currently 54°F in Simi Valley, California, USA
54°F
63°F / 53°F
calm
0.00"
Monday, September 24, 2018 6:22 AM PDT

Simi Valley, California Climate Summary
Typical March Day

Normal High:    71.8°F (22.1°C)
Normal Low:    49.1°F (9.5°C)
Average:    59.5°F (15.3°C)

Hour    Temperature    Wind Speed    Humidity
12:00 AM    54°F (12°C)    2 mph    67%
1:00 AM    54°F (12°C)    2 mph    68%
2:00 AM    53°F (12°C)    2 mph    69%
3:00 AM    53°F (11°C)    3 mph    69%
4:00 AM    52°F (11°C)    3 mph    69%
5:00 AM    52°F (11°C)    3 mph    70%
6:00 AM    51°F (11°C)    3 mph    70%
7:00 AM    51°F (11°C)    3 mph    71%
8:00 AM    53°F (12°C)    3 mph    70%
9:00 AM    57°F (14°C)    3 mph    66%
10:00 AM    61°F (16°C)    4 mph    59%
11:00 AM    65°F (18°C)    4 mph    51%
12:00 PM    68°F (20°C)    5 mph    46%
1:00 PM    70°F (21°C)    5 mph    44%
2:00 PM    70°F (21°C)    5 mph    44%
3:00 PM    70°F (21°C)    6 mph    45%
4:00 PM    69°F (20°C)    6 mph    47%
5:00 PM    67°F (20°C)    5 mph    49%
6:00 PM    65°F (18°C)    4 mph    52%
7:00 PM    62°F (17°C)    3 mph    58%
8:00 PM    59°F (15°C)    2 mph    63%
9:00 PM    57°F (14°C)    2 mph    65%
10:00 PM    56°F (13°C)    2 mph    66%
11:00 PM    55°F (13°C)    2 mph    67%
 

The Simi Valley, California weather pages are a service of WeatherCurrents.
Copyright ©Mon Sep 24 06:23:22 PDT 2018  WeatherCurrents. All rights reserved. - Submit questions and comments - Privacy Policy